createdAt,value
2023-03-21T00:05:42.468Z,5.65
2023-03-21T00:11:04.293Z,5.20
2023-03-21T00:16:28.090Z,5.57
2023-03-21T00:22:19.261Z,6.17
2023-03-21T00:27:56.873Z,5.00
2023-03-21T00:33:22.905Z,6.57
2023-03-21T00:38:46.599Z,5.45
2023-03-21T00:44:07.241Z,5.10
2023-03-21T00:49:28.215Z,4.90
2023-03-21T00:55:19.095Z,5.05
2023-03-21T01:01:10.674Z,7.93
2023-03-21T01:07:00.017Z,6.90
2023-03-21T01:12:20.862Z,6.95
2023-03-21T01:17:41.991Z,7.28
2023-03-21T01:23:02.840Z,7.30
2023-03-21T01:28:26.441Z,5.65
2023-03-21T01:33:47.977Z,6.53
2023-03-21T01:39:10.568Z,7.88
2023-03-21T01:44:32.235Z,7.72
2023-03-21T01:49:58.174Z,9.32
2023-03-21T01:55:22.710Z,8.07
2023-03-21T02:01:07.239Z,7.95
2023-03-21T02:06:38.619Z,9.90
2023-03-21T02:12:08.804Z,9.25
2023-03-21T02:18:01.410Z,6.50
2023-03-21T02:24:00.808Z,7.72
2023-03-21T02:29:47.951Z,11.38
2023-03-21T02:35:47.167Z,9.82
2023-03-21T02:47:05.268Z,9.75
2023-03-21T02:52:38.724Z,8.15
2023-03-21T02:58:12.749Z,6.65
2023-03-21T03:03:40.398Z,8.63
2023-03-21T03:09:31.709Z,7.55
2023-03-21T03:15:05.289Z,9.20
2023-03-21T03:20:32.199Z,7.90
2023-03-21T03:32:08.713Z,9.70
2023-03-21T03:38:31.064Z,6.85
2023-03-21T03:43:54.914Z,10.65
2023-03-21T03:49:24.743Z,11.68
2023-03-21T03:54:48.365Z,7.50
2023-03-21T04:00:13.292Z,8.03
2023-03-21T04:12:58.868Z,9.98
2023-03-21T04:19:23.881Z,8.52
2023-03-21T04:24:44.881Z,9.50
2023-03-21T04:30:09.894Z,9.02
2023-03-21T04:35:59.229Z,9.63
2023-03-21T04:41:24.881Z,10.35
2023-03-21T04:46:45.821Z,10.93
2023-03-21T04:52:17.894Z,10.52
2023-03-21T04:58:07.027Z,8.35
2023-03-21T05:03:34.482Z,10.27
2023-03-21T05:09:00.212Z,9.38
2023-03-21T05:14:49.335Z,11.70
2023-03-21T05:20:11.328Z,9.95
2023-03-21T05:26:02.969Z,9.98
2023-03-21T05:31:33.961Z,11.10
2023-03-21T05:37:08.852Z,9.52
2023-03-21T05:42:51.682Z,9.25
2023-03-21T05:48:16.565Z,9.50
2023-03-21T05:53:57.641Z,14.32
2023-03-21T05:59:19.785Z,10.07
2023-03-21T06:04:44.323Z,9.63
2023-03-21T06:10:40.003Z,12.10
2023-03-21T06:16:04.059Z,10.05
2023-03-21T06:21:28.919Z,10.40
2023-03-21T06:26:49.883Z,11.13
2023-03-21T06:32:38.811Z,10.18
2023-03-21T06:38:08.587Z,10.48
2023-03-21T06:43:31.422Z,8.50
2023-03-21T06:48:52.734Z,7.93
2023-03-21T06:54:18.935Z,8.75
2023-03-21T06:59:56.885Z,11.60
2023-03-21T07:05:52.762Z,7.90
2023-03-21T07:11:24.089Z,10.60
2023-03-21T07:16:45.228Z,9.60
2023-03-21T07:22:07.420Z,6.97
2023-03-21T07:27:28.096Z,8.68
2023-03-21T07:32:50.738Z,7.60
2023-03-21T07:38:11.579Z,8.18
2023-03-21T07:43:32.696Z,10.65
2023-03-21T07:48:53.257Z,6.82
2023-03-21T07:54:22.737Z,9.90
2023-03-21T07:59:43.843Z,7.88
2023-03-21T08:05:05.297Z,8.30
2023-03-21T08:10:26.671Z,9.73
2023-03-21T08:15:47.610Z,9.60
2023-03-21T08:21:09.660Z,5.75
2023-03-21T08:26:32.116Z,7.13
2023-03-21T08:31:53.021Z,6.40
2023-03-21T08:37:13.783Z,6.13
2023-03-21T08:42:34.523Z,3.65
2023-03-21T08:47:56.308Z,5.55
2023-03-21T08:53:17.589Z,3.35
2023-03-21T08:58:38.929Z,3.60
2023-03-21T09:03:59.720Z,3.00
2023-03-21T09:09:20.382Z,1.70
2023-03-21T09:14:41.330Z,2.10
2023-03-21T09:20:11.299Z,3.13
2023-03-21T09:25:32.768Z,1.88
2023-03-21T09:30:55.409Z,1.55
2023-03-21T09:36:19.442Z,1.60
2023-03-21T09:41:45.256Z,3.00
2023-03-21T09:47:22.310Z,1.80
2023-03-21T09:52:48.212Z,3.30
2023-03-21T09:58:36.605Z,1.48
2023-03-21T10:04:01.036Z,2.40
2023-03-21T10:09:23.554Z,3.67
2023-03-21T10:14:45.440Z,1.27
2023-03-21T10:20:21.348Z,2.80
2023-03-21T10:25:44.760Z,3.55
2023-03-21T10:31:07.346Z,2.35
2023-03-21T10:36:30.454Z,4.10
2023-03-21T10:41:51.223Z,1.63
2023-03-21T10:47:12.067Z,2.00
2023-03-21T10:52:33.312Z,5.25
2023-03-21T10:58:19.035Z,1.70
2023-03-21T11:03:43.762Z,2.83
2023-03-21T11:09:25.242Z,3.05
2023-03-21T11:14:47.528Z,1.95
2023-03-21T11:20:12.609Z,2.33
2023-03-21T11:25:41.355Z,1.85
2023-03-21T11:31:03.435Z,2.75
2023-03-21T11:36:24.219Z,2.55
2023-03-21T11:41:47.821Z,3.47
2023-03-21T11:47:09.925Z,2.10
2023-03-21T11:52:35.713Z,1.52
2023-03-21T11:58:34.830Z,1.55
2023-03-21T12:04:34.507Z,1.42
2023-03-21T12:10:09.633Z,1.45
2023-03-21T12:15:38.726Z,2.03
2023-03-21T12:21:20.041Z,2.60
2023-03-21T12:26:52.903Z,2.83
2023-03-21T12:32:42.084Z,2.70
2023-03-21T12:38:05.774Z,4.00
2023-03-21T12:43:45.638Z,2.33
2023-03-21T12:49:34.352Z,2.60
2023-03-21T12:55:14.021Z,2.55
2023-03-21T13:01:01.529Z,2.97
2023-03-21T13:06:23.038Z,1.40
2023-03-21T13:11:43.949Z,1.92
2023-03-21T13:17:11.686Z,4.07
2023-03-21T13:22:32.672Z,2.85
2023-03-21T13:28:04.314Z,1.88
2023-03-21T13:33:29.633Z,2.20
2023-03-21T13:38:51.740Z,2.22
2023-03-21T13:44:15.510Z,2.53
2023-03-21T13:49:37.300Z,2.10
2023-03-21T13:54:58.131Z,3.72
2023-03-21T14:00:33.318Z,5.43
2023-03-21T14:05:54.277Z,3.05
2023-03-21T14:11:18.538Z,2.95
2023-03-21T14:16:39.294Z,4.25
2023-03-21T14:22:00.263Z,3.05
2023-03-21T14:27:21.479Z,2.78
2023-03-21T14:32:42.234Z,4.25
2023-03-21T14:38:07.525Z,5.88
2023-03-21T14:43:28.464Z,3.25
2023-03-21T14:48:49.360Z,5.38
2023-03-21T14:54:12.314Z,4.22
2023-03-21T15:04:57.208Z,3.75
2023-03-21T15:10:18.235Z,2.95
2023-03-21T15:15:40.116Z,3.08
2023-03-21T15:21:03.953Z,2.72
2023-03-21T15:26:24.824Z,3.50
2023-03-21T15:31:47.362Z,4.90
2023-03-21T15:37:09.182Z,4.23
2023-03-21T15:42:34.817Z,6.68
2023-03-21T15:48:18.521Z,2.90
2023-03-21T15:53:39.183Z,3.92
2023-03-21T15:59:02.334Z,4.10
2023-03-21T16:04:24.409Z,3.10
2023-03-21T16:09:46.448Z,5.57
2023-03-21T16:15:07.575Z,4.13
2023-03-21T16:20:32.676Z,6.18
2023-03-21T16:25:57.839Z,9.38
2023-03-21T16:31:23.436Z,3.47
2023-03-21T16:36:44.107Z,4.38
2023-03-21T16:42:06.279Z,3.90
2023-03-21T16:47:27.006Z,5.20
2023-03-21T16:52:48.221Z,4.78
2023-03-21T16:58:37.057Z,5.80
2023-03-21T17:04:26.139Z,6.53
2023-03-21T17:10:20.758Z,4.28
2023-03-21T17:33:27.278Z,5.43
2023-03-21T17:39:28.789Z,5.45
2023-03-21T17:45:50.487Z,6.93
2023-03-21T17:59:33.597Z,6.85
2023-03-21T18:04:54.612Z,6.15
2023-03-21T18:10:43.583Z,5.40
2023-03-21T18:25:13.564Z,6.07
2023-03-21T18:50:15.713Z,10.57
2023-03-21T18:55:46.445Z,5.88
2023-03-21T19:01:36.701Z,8.73
2023-03-21T19:06:58.701Z,7.65
2023-03-21T19:12:19.822Z,8.77
2023-03-21T19:18:26.569Z,7.93
2023-03-21T19:23:22.081Z,8.13
2023-03-21T19:28:42.743Z,10.45
2023-03-21T19:34:03.605Z,6.00
2023-03-21T19:39:25.159Z,9.38
2023-03-21T19:44:47.097Z,8.40
2023-03-21T19:50:47.835Z,8.77
2023-03-21T19:55:54.097Z,12.55
2023-03-21T20:01:20.650Z,13.50
2023-03-21T20:06:41.885Z,14.43
2023-03-21T20:12:34.518Z,14.82
2023-03-21T20:18:02.112Z,11.80
2023-03-21T20:23:23.410Z,17.13
2023-03-21T20:28:56.704Z,11.40
2023-03-21T20:34:24.871Z,13.35
2023-03-21T20:39:46.027Z,14.05
2023-03-21T20:45:08.635Z,12.43
2023-03-21T20:50:33.086Z,7.23
2023-03-21T20:55:54.753Z,10.25
2023-03-21T21:01:16.994Z,9.63
2023-03-21T21:07:06.650Z,9.40
2023-03-21T21:12:30.229Z,8.90
2023-03-21T21:18:08.574Z,11.52
2023-03-21T21:23:29.576Z,9.15
2023-03-21T21:28:51.955Z,11.32
2023-03-21T21:34:13.404Z,10.57
2023-03-21T21:39:37.896Z,7.75
2023-03-21T21:44:58.761Z,7.68
2023-03-21T21:50:22.178Z,7.95
2023-03-21T21:55:42.994Z,5.95
2023-03-21T22:01:04.523Z,6.65
2023-03-21T22:06:24.994Z,7.53
2023-03-21T22:11:45.959Z,8.75
2023-03-21T22:17:07.378Z,11.00
2023-03-21T22:22:28.338Z,8.88
2023-03-21T22:27:49.172Z,9.20
2023-03-21T22:33:10.276Z,6.93
2023-03-21T22:38:34.556Z,7.88
2023-03-21T22:43:55.406Z,7.10
2023-03-21T22:49:16.303Z,7.97
2023-03-21T22:55:05.561Z,5.43
2023-03-21T23:00:26.888Z,7.38
2023-03-21T23:05:47.499Z,8.13
2023-03-21T23:11:08.659Z,7.97
2023-03-21T23:16:29.648Z,6.63
2023-03-21T23:21:50.489Z,7.72
2023-03-21T23:27:11.380Z,7.30
2023-03-21T23:32:32.149Z,7.85
2023-03-21T23:37:53.141Z,8.00
2023-03-21T23:43:14.012Z,7.78
2023-03-21T23:48:34.696Z,6.13
2023-03-21T23:53:56.512Z,8.32
2023-03-21T23:59:17.594Z,8.55
